METAR Data
IDs: Format: Raw Decoded Include TAF

Data at: 1722 UTC 19 Sep 2018

METAR for:KGNV (Gainesville Rgnl, FL, US)
Text:KGNV 191653Z 27004KT 10SM FEW036 32/23 A3000 RMK AO2 SLP155 T03220228
Temperature: 32.2°C ( 90°F)
Dewpoint: 22.8°C ( 73°F) [RH = 58%]
Pressure (altimeter):30.00 inches Hg (1016.0 mb) [Sea level pressure: 1015.5 mb]
Winds:from the W (270 degrees) at 5 MPH (4 knots; 2.1 m/s)
Visibility:10 or more sm (16+ km)
Ceiling:at least 12,000 feet AGL
Clouds: few clouds at 3600 feet AGL